sensor_id;sensor_type;location;lat;lon;timestamp;P1;durP1;ratioP1;P2;durP2;ratioP2
21581;SDS011;10952;50.836;4.348;2023-03-31T00:00:25;11.23;;;2.30;;
21581;SDS011;10952;50.836;4.348;2023-03-31T00:02:51;18.13;;;3.20;;
21581;SDS011;10952;50.836;4.348;2023-03-31T00:05:22;12.93;;;2.50;;
21581;SDS011;10952;50.836;4.348;2023-03-31T00:07:56;17.67;;;3.90;;
21581;SDS011;10952;50.836;4.348;2023-03-31T00:10:26;17.43;;;3.00;;
21581;SDS011;10952;50.836;4.348;2023-03-31T00:12:52;17.80;;;2.77;;
21581;SDS011;10952;50.836;4.348;2023-03-31T00:15:18;13.97;;;2.60;;
21581;SDS011;10952;50.836;4.348;2023-03-31T00:17:43;14.23;;;3.10;;
21581;SDS011;10952;50.836;4.348;2023-03-31T00:20:11;21.23;;;3.33;;
21581;SDS011;10952;50.836;4.348;2023-03-31T00:22:37;18.63;;;2.83;;
21581;SDS011;10952;50.836;4.348;2023-03-31T00:25:06;17.50;;;3.20;;
21581;SDS011;10952;50.836;4.348;2023-03-31T00:27:33;17.83;;;2.67;;
21581;SDS011;10952;50.836;4.348;2023-03-31T00:29:59;11.80;;;2.13;;
21581;SDS011;10952;50.836;4.348;2023-03-31T00:32:25;9.67;;;2.33;;
21581;SDS011;10952;50.836;4.348;2023-03-31T00:34:50;14.53;;;2.10;;
21581;SDS011;10952;50.836;4.348;2023-03-31T00:37:16;15.40;;;2.67;;
21581;SDS011;10952;50.836;4.348;2023-03-31T00:39:42;16.03;;;3.00;;
21581;SDS011;10952;50.836;4.348;2023-03-31T00:42:10;13.47;;;2.30;;
21581;SDS011;10952;50.836;4.348;2023-03-31T00:47:41;22.67;;;3.03;;
21581;SDS011;10952;50.836;4.348;2023-03-31T00:50:29;14.87;;;3.17;;
21581;SDS011;10952;50.836;4.348;2023-03-31T00:53:00;20.73;;;3.17;;
21581;SDS011;10952;50.836;4.348;2023-03-31T00:55:34;16.73;;;3.73;;
21581;SDS011;10952;50.836;4.348;2023-03-31T00:58:09;21.10;;;3.53;;
21581;SDS011;10952;50.836;4.348;2023-03-31T01:00:38;19.60;;;3.73;;
21581;SDS011;10952;50.836;4.348;2023-03-31T01:03:05;15.87;;;2.90;;
21581;SDS011;10952;50.836;4.348;2023-03-31T01:05:42;14.30;;;2.83;;
21581;SDS011;10952;50.836;4.348;2023-03-31T01:08:11;11.90;;;2.97;;
21581;SDS011;10952;50.836;4.348;2023-03-31T01:10:48;17.90;;;4.00;;
21581;SDS011;10952;50.836;4.348;2023-03-31T01:13:16;17.33;;;3.37;;
21581;SDS011;10952;50.836;4.348;2023-03-31T01:15:43;16.43;;;3.30;;
21581;SDS011;10952;50.836;4.348;2023-03-31T01:18:09;19.53;;;3.53;;
21581;SDS011;10952;50.836;4.348;2023-03-31T01:32:25;11.93;;;2.70;;
21581;SDS011;10952;50.836;4.348;2023-03-31T01:42:40;11.83;;;2.43;;
21581;SDS011;10952;50.836;4.348;2023-03-31T01:48:01;9.77;;;2.20;;
21581;SDS011;10952;50.836;4.348;2023-03-31T01:55:47;11.70;;;2.23;;
21581;SDS011;10952;50.836;4.348;2023-03-31T01:58:25;9.93;;;2.20;;
21581;SDS011;10952;50.836;4.348;2023-03-31T02:01:12;6.63;;;2.00;;
21581;SDS011;10952;50.836;4.348;2023-03-31T02:03:42;12.93;;;2.37;;
21581;SDS011;10952;50.836;4.348;2023-03-31T02:06:34;11.73;;;1.93;;
21581;SDS011;10952;50.836;4.348;2023-03-31T02:09:09;10.77;;;2.03;;
21581;SDS011;10952;50.836;4.348;2023-03-31T02:11:41;11.13;;;2.00;;
21581;SDS011;10952;50.836;4.348;2023-03-31T02:14:09;9.37;;;2.00;;
21581;SDS011;10952;50.836;4.348;2023-03-31T02:16:42;8.60;;;1.83;;
21581;SDS011;10952;50.836;4.348;2023-03-31T02:19:11;13.87;;;1.97;;
21581;SDS011;10952;50.836;4.348;2023-03-31T02:21:42;10.33;;;2.20;;
21581;SDS011;10952;50.836;4.348;2023-03-31T02:24:12;9.13;;;1.83;;
21581;SDS011;10952;50.836;4.348;2023-03-31T02:26:41;13.53;;;2.43;;
21581;SDS011;10952;50.836;4.348;2023-03-31T02:29:18;9.33;;;1.60;;
21581;SDS011;10952;50.836;4.348;2023-03-31T02:34:16;11.50;;;2.17;;
21581;SDS011;10952;50.836;4.348;2023-03-31T02:36:42;12.13;;;1.67;;
21581;SDS011;10952;50.836;4.348;2023-03-31T02:39:13;8.47;;;1.50;;
21581;SDS011;10952;50.836;4.348;2023-03-31T02:41:43;12.53;;;2.00;;
21581;SDS011;10952;50.836;4.348;2023-03-31T02:44:09;7.63;;;2.00;;
21581;SDS011;10952;50.836;4.348;2023-03-31T02:46:35;18.30;;;2.13;;
21581;SDS011;10952;50.836;4.348;2023-03-31T02:49:03;7.90;;;1.40;;
21581;SDS011;10952;50.836;4.348;2023-03-31T02:54:37;9.83;;;2.13;;
21581;SDS011;10952;50.836;4.348;2023-03-31T03:00:03;13.00;;;1.73;;
21581;SDS011;10952;50.836;4.348;2023-03-31T03:17:17;10.27;;;2.20;;
21581;SDS011;10952;50.836;4.348;2023-03-31T03:20:00;14.67;;;2.27;;
21581;SDS011;10952;50.836;4.348;2023-03-31T03:22:33;14.23;;;2.20;;
21581;SDS011;10952;50.836;4.348;2023-03-31T03:24:59;10.30;;;2.30;;
21581;SDS011;10952;50.836;4.348;2023-03-31T03:27:25;13.90;;;1.83;;
21581;SDS011;10952;50.836;4.348;2023-03-31T03:29:51;12.27;;;2.17;;
21581;SDS011;10952;50.836;4.348;2023-03-31T03:32:16;11.20;;;2.30;;
21581;SDS011;10952;50.836;4.348;2023-03-31T03:34:42;11.73;;;2.23;;
21581;SDS011;10952;50.836;4.348;2023-03-31T03:37:08;14.43;;;3.03;;
21581;SDS011;10952;50.836;4.348;2023-03-31T03:39:33;12.47;;;2.20;;
21581;SDS011;10952;50.836;4.348;2023-03-31T03:41:59;2.83;;;0.80;;
21581;SDS011;10952;50.836;4.348;2023-03-31T03:44:24;6.07;;;1.07;;
21581;SDS011;10952;50.836;4.348;2023-03-31T03:46:50;5.43;;;0.83;;
21581;SDS011;10952;50.836;4.348;2023-03-31T03:49:16;4.60;;;0.70;;
21581;SDS011;10952;50.836;4.348;2023-03-31T03:51:42;5.47;;;1.17;;
21581;SDS011;10952;50.836;4.348;2023-03-31T03:54:07;1.70;;;0.90;;
21581;SDS011;10952;50.836;4.348;2023-03-31T03:56:33;1.63;;;0.60;;
21581;SDS011;10952;50.836;4.348;2023-03-31T03:58:58;2.07;;;0.70;;
21581;SDS011;10952;50.836;4.348;2023-03-31T04:01:24;1.73;;;0.60;;
21581;SDS011;10952;50.836;4.348;2023-03-31T04:03:50;0.60;;;0.47;;
21581;SDS011;10952;50.836;4.348;2023-03-31T04:06:15;3.20;;;0.70;;
21581;SDS011;10952;50.836;4.348;2023-03-31T04:08:41;3.20;;;1.30;;
21581;SDS011;10952;50.836;4.348;2023-03-31T04:11:14;4.23;;;2.47;;
21581;SDS011;10952;50.836;4.348;2023-03-31T04:13:41;2.93;;;1.70;;
21581;SDS011;10952;50.836;4.348;2023-03-31T04:16:08;2.67;;;0.97;;
21581;SDS011;10952;50.836;4.348;2023-03-31T04:18:34;3.80;;;1.10;;
21581;SDS011;10952;50.836;4.348;2023-03-31T04:21:01;7.63;;;1.27;;
21581;SDS011;10952;50.836;4.348;2023-03-31T04:23:37;5.43;;;1.40;;
21581;SDS011;10952;50.836;4.348;2023-03-31T04:26:13;6.93;;;1.50;;
21581;SDS011;10952;50.836;4.348;2023-03-31T04:28:40;5.00;;;1.47;;
21581;SDS011;10952;50.836;4.348;2023-03-31T04:31:10;5.90;;;1.60;;
21581;SDS011;10952;50.836;4.348;2023-03-31T04:33:52;8.80;;;1.60;;
21581;SDS011;10952;50.836;4.348;2023-03-31T04:36:19;10.20;;;2.40;;
21581;SDS011;10952;50.836;4.348;2023-03-31T04:38:45;13.40;;;1.97;;
21581;SDS011;10952;50.836;4.348;2023-03-31T04:41:16;9.73;;;1.97;;
21581;SDS011;10952;50.836;4.348;2023-03-31T04:43:42;8.07;;;2.07;;
21581;SDS011;10952;50.836;4.348;2023-03-31T04:46:08;15.13;;;3.10;;
21581;SDS011;10952;50.836;4.348;2023-03-31T04:48:34;14.93;;;3.00;;
21581;SDS011;10952;50.836;4.348;2023-03-31T04:51:00;13.23;;;2.70;;
21581;SDS011;10952;50.836;4.348;2023-03-31T04:53:26;12.00;;;2.40;;
21581;SDS011;10952;50.836;4.348;2023-03-31T04:55:51;13.03;;;2.50;;
21581;SDS011;10952;50.836;4.348;2023-03-31T04:58:17;12.23;;;2.80;;
21581;SDS011;10952;50.836;4.348;2023-03-31T05:00:43;7.87;;;2.50;;
21581;SDS011;10952;50.836;4.348;2023-03-31T05:03:09;10.97;;;2.40;;
21581;SDS011;10952;50.836;4.348;2023-03-31T05:05:35;15.57;;;3.20;;
21581;SDS011;10952;50.836;4.348;2023-03-31T05:08:01;13.17;;;2.70;;
21581;SDS011;10952;50.836;4.348;2023-03-31T05:10:28;10.83;;;2.80;;
21581;SDS011;10952;50.836;4.348;2023-03-31T05:12:54;13.13;;;2.83;;
21581;SDS011;10952;50.836;4.348;2023-03-31T05:15:19;10.90;;;2.50;;
21581;SDS011;10952;50.836;4.348;2023-03-31T05:17:45;14.33;;;3.20;;
21581;SDS011;10952;50.836;4.348;2023-03-31T05:20:11;13.57;;;3.00;;
21581;SDS011;10952;50.836;4.348;2023-03-31T05:22:39;16.03;;;2.93;;
21581;SDS011;10952;50.836;4.348;2023-03-31T05:25:06;17.50;;;3.73;;
21581;SDS011;10952;50.836;4.348;2023-03-31T05:27:33;15.77;;;2.90;;
21581;SDS011;10952;50.836;4.348;2023-03-31T05:29:59;17.23;;;2.93;;
21581;SDS011;10952;50.836;4.348;2023-03-31T05:32:26;19.10;;;3.30;;
21581;SDS011;10952;50.836;4.348;2023-03-31T05:34:52;15.57;;;2.40;;
21581;SDS011;10952;50.836;4.348;2023-03-31T05:37:21;20.50;;;3.07;;
21581;SDS011;10952;50.836;4.348;2023-03-31T05:39:47;19.63;;;3.33;;
21581;SDS011;10952;50.836;4.348;2023-03-31T05:42:13;15.57;;;2.57;;
21581;SDS011;10952;50.836;4.348;2023-03-31T05:44:38;18.63;;;2.83;;
21581;SDS011;10952;50.836;4.348;2023-03-31T05:47:04;18.27;;;3.03;;
21581;SDS011;10952;50.836;4.348;2023-03-31T05:49:30;12.47;;;2.60;;
21581;SDS011;10952;50.836;4.348;2023-03-31T05:51:55;18.13;;;3.17;;
21581;SDS011;10952;50.836;4.348;2023-03-31T05:54:21;17.30;;;3.33;;
21581;SDS011;10952;50.836;4.348;2023-03-31T05:56:46;14.47;;;2.57;;
21581;SDS011;10952;50.836;4.348;2023-03-31T05:59:12;15.07;;;2.93;;
21581;SDS011;10952;50.836;4.348;2023-03-31T06:01:38;13.23;;;2.97;;
21581;SDS011;10952;50.836;4.348;2023-03-31T06:04:03;13.20;;;2.70;;
21581;SDS011;10952;50.836;4.348;2023-03-31T06:06:29;17.93;;;3.20;;
21581;SDS011;10952;50.836;4.348;2023-03-31T06:08:57;20.17;;;3.50;;
21581;SDS011;10952;50.836;4.348;2023-03-31T06:11:22;12.60;;;2.80;;
21581;SDS011;10952;50.836;4.348;2023-03-31T06:13:48;17.97;;;3.07;;
21581;SDS011;10952;50.836;4.348;2023-03-31T06:16:14;17.80;;;3.93;;
21581;SDS011;10952;50.836;4.348;2023-03-31T06:18:41;17.03;;;3.30;;
21581;SDS011;10952;50.836;4.348;2023-03-31T06:21:09;16.17;;;3.23;;
21581;SDS011;10952;50.836;4.348;2023-03-31T06:23:43;17.13;;;4.30;;
21581;SDS011;10952;50.836;4.348;2023-03-31T06:26:10;15.43;;;3.20;;
21581;SDS011;10952;50.836;4.348;2023-03-31T06:28:41;14.77;;;3.00;;
21581;SDS011;10952;50.836;4.348;2023-03-31T06:31:08;18.03;;;3.33;;
21581;SDS011;10952;50.836;4.348;2023-03-31T06:33:36;17.43;;;3.70;;
21581;SDS011;10952;50.836;4.348;2023-03-31T06:36:03;18.60;;;3.27;;
21581;SDS011;10952;50.836;4.348;2023-03-31T06:38:31;19.03;;;3.80;;
21581;SDS011;10952;50.836;4.348;2023-03-31T06:40:57;15.00;;;2.90;;
21581;SDS011;10952;50.836;4.348;2023-03-31T06:43:23;19.87;;;3.73;;
21581;SDS011;10952;50.836;4.348;2023-03-31T06:45:49;17.67;;;3.50;;
21581;SDS011;10952;50.836;4.348;2023-03-31T06:48:17;16.63;;;3.80;;
21581;SDS011;10952;50.836;4.348;2023-03-31T06:50:42;17.07;;;3.60;;
21581;SDS011;10952;50.836;4.348;2023-03-31T06:53:08;15.37;;;3.50;;
21581;SDS011;10952;50.836;4.348;2023-03-31T06:55:34;14.83;;;2.77;;
21581;SDS011;10952;50.836;4.348;2023-03-31T06:58:00;25.37;;;6.50;;
21581;SDS011;10952;50.836;4.348;2023-03-31T07:00:25;22.07;;;4.97;;
21581;SDS011;10952;50.836;4.348;2023-03-31T07:02:52;17.23;;;3.40;;
21581;SDS011;10952;50.836;4.348;2023-03-31T07:05:18;18.13;;;3.33;;
21581;SDS011;10952;50.836;4.348;2023-03-31T07:07:50;20.03;;;3.50;;
21581;SDS011;10952;50.836;4.348;2023-03-31T07:10:17;13.03;;;3.53;;
21581;SDS011;10952;50.836;4.348;2023-03-31T07:12:43;25.40;;;3.77;;
21581;SDS011;10952;50.836;4.348;2023-03-31T07:15:08;13.23;;;2.87;;
21581;SDS011;10952;50.836;4.348;2023-03-31T07:17:34;15.43;;;3.30;;
21581;SDS011;10952;50.836;4.348;2023-03-31T07:20:01;14.33;;;2.73;;
21581;SDS011;10952;50.836;4.348;2023-03-31T07:22:28;17.47;;;3.47;;
21581;SDS011;10952;50.836;4.348;2023-03-31T07:24:54;15.20;;;3.30;;
21581;SDS011;10952;50.836;4.348;2023-03-31T07:27:20;19.20;;;4.17;;
21581;SDS011;10952;50.836;4.348;2023-03-31T07:29:46;16.30;;;4.13;;
21581;SDS011;10952;50.836;4.348;2023-03-31T07:32:11;15.30;;;3.50;;
21581;SDS011;10952;50.836;4.348;2023-03-31T07:34:37;13.40;;;3.00;;
21581;SDS011;10952;50.836;4.348;2023-03-31T07:37:04;17.53;;;3.43;;
21581;SDS011;10952;50.836;4.348;2023-03-31T07:39:30;21.00;;;3.10;;
21581;SDS011;10952;50.836;4.348;2023-03-31T07:41:56;18.10;;;4.50;;
21581;SDS011;10952;50.836;4.348;2023-03-31T07:44:22;17.57;;;4.57;;
21581;SDS011;10952;50.836;4.348;2023-03-31T07:46:47;20.40;;;3.93;;
21581;SDS011;10952;50.836;4.348;2023-03-31T07:49:13;20.77;;;3.93;;
21581;SDS011;10952;50.836;4.348;2023-03-31T07:51:40;19.35;;;3.95;;
21581;SDS011;10952;50.836;4.348;2023-03-31T07:54:06;18.87;;;4.43;;
21581;SDS011;10952;50.836;4.348;2023-03-31T07:56:31;23.13;;;4.10;;
21581;SDS011;10952;50.836;4.348;2023-03-31T07:58:58;22.30;;;3.87;;
21581;SDS011;10952;50.836;4.348;2023-03-31T08:01:24;20.73;;;4.67;;
21581;SDS011;10952;50.836;4.348;2023-03-31T08:03:52;21.97;;;4.00;;
21581;SDS011;10952;50.836;4.348;2023-03-31T08:06:20;19.73;;;4.30;;
21581;SDS011;10952;50.836;4.348;2023-03-31T08:08:47;21.07;;;4.40;;
21581;SDS011;10952;50.836;4.348;2023-03-31T08:11:13;24.13;;;4.60;;
21581;SDS011;10952;50.836;4.348;2023-03-31T08:13:39;19.77;;;3.70;;
21581;SDS011;10952;50.836;4.348;2023-03-31T08:16:05;26.63;;;4.13;;
21581;SDS011;10952;50.836;4.348;2023-03-31T08:18:30;20.17;;;3.50;;
21581;SDS011;10952;50.836;4.348;2023-03-31T08:20:56;23.83;;;4.27;;
21581;SDS011;10952;50.836;4.348;2023-03-31T08:23:21;20.63;;;4.17;;
21581;SDS011;10952;50.836;4.348;2023-03-31T08:25:47;23.03;;;4.77;;
21581;SDS011;10952;50.836;4.348;2023-03-31T08:28:13;16.67;;;3.93;;
21581;SDS011;10952;50.836;4.348;2023-03-31T08:30:39;21.40;;;3.43;;
21581;SDS011;10952;50.836;4.348;2023-03-31T08:33:05;18.23;;;3.20;;
21581;SDS011;10952;50.836;4.348;2023-03-31T08:35:35;27.53;;;4.27;;
21581;SDS011;10952;50.836;4.348;2023-03-31T08:38:01;14.40;;;3.03;;
21581;SDS011;10952;50.836;4.348;2023-03-31T08:40:28;19.07;;;3.83;;
21581;SDS011;10952;50.836;4.348;2023-03-31T08:42:56;21.33;;;3.87;;
21581;SDS011;10952;50.836;4.348;2023-03-31T08:45:44;16.87;;;2.90;;
21581;SDS011;10952;50.836;4.348;2023-03-31T08:50:54;13.87;;;3.03;;
21581;SDS011;10952;50.836;4.348;2023-03-31T08:53:56;21.43;;;4.00;;
21581;SDS011;10952;50.836;4.348;2023-03-31T08:56:28;22.60;;;4.23;;
21581;SDS011;10952;50.836;4.348;2023-03-31T08:58:58;18.23;;;4.57;;
21581;SDS011;10952;50.836;4.348;2023-03-31T09:16:12;18.27;;;4.40;;
21581;SDS011;10952;50.836;4.348;2023-03-31T09:18:40;23.40;;;4.20;;
21581;SDS011;10952;50.836;4.348;2023-03-31T09:21:22;19.70;;;4.33;;
21581;SDS011;10952;50.836;4.348;2023-03-31T09:24:02;22.43;;;3.57;;
21581;SDS011;10952;50.836;4.348;2023-03-31T09:29:17;19.70;;;3.83;;
21581;SDS011;10952;50.836;4.348;2023-03-31T09:31:53;24.07;;;4.00;;
21581;SDS011;10952;50.836;4.348;2023-03-31T09:34:24;24.03;;;4.27;;
21581;SDS011;10952;50.836;4.348;2023-03-31T09:36:53;24.60;;;4.03;;
21581;SDS011;10952;50.836;4.348;2023-03-31T09:39:19;24.50;;;4.20;;
21581;SDS011;10952;50.836;4.348;2023-03-31T09:41:45;19.63;;;3.97;;
21581;SDS011;10952;50.836;4.348;2023-03-31T09:44:20;18.93;;;4.30;;
21581;SDS011;10952;50.836;4.348;2023-03-31T09:46:52;21.80;;;4.00;;
21581;SDS011;10952;50.836;4.348;2023-03-31T09:49:22;28.63;;;4.70;;
21581;SDS011;10952;50.836;4.348;2023-03-31T09:52:26;23.97;;;4.57;;
21581;SDS011;10952;50.836;4.348;2023-03-31T09:55:08;26.87;;;4.60;;
21581;SDS011;10952;50.836;4.348;2023-03-31T09:57:39;21.03;;;3.57;;
21581;SDS011;10952;50.836;4.348;2023-03-31T10:02:38;25.20;;;4.77;;
21581;SDS011;10952;50.836;4.348;2023-03-31T10:05:06;16.47;;;3.43;;
21581;SDS011;10952;50.836;4.348;2023-03-31T10:07:42;31.27;;;4.80;;
21581;SDS011;10952;50.836;4.348;2023-03-31T10:10:10;29.50;;;4.83;;
21581;SDS011;10952;50.836;4.348;2023-03-31T10:12:49;22.07;;;4.73;;
21581;SDS011;10952;50.836;4.348;2023-03-31T10:15:20;21.50;;;3.80;;
21581;SDS011;10952;50.836;4.348;2023-03-31T10:17:50;19.67;;;3.57;;
21581;SDS011;10952;50.836;4.348;2023-03-31T10:20:20;22.63;;;4.20;;
21581;SDS011;10952;50.836;4.348;2023-03-31T10:23:01;21.20;;;3.67;;
21581;SDS011;10952;50.836;4.348;2023-03-31T10:25:29;27.73;;;4.23;;
21581;SDS011;10952;50.836;4.348;2023-03-31T10:27:57;22.60;;;3.93;;
21581;SDS011;10952;50.836;4.348;2023-03-31T10:30:26;18.53;;;3.77;;
21581;SDS011;10952;50.836;4.348;2023-03-31T10:32:59;23.73;;;3.97;;
21581;SDS011;10952;50.836;4.348;2023-03-31T10:35:31;24.30;;;4.87;;
21581;SDS011;10952;50.836;4.348;2023-03-31T10:37:59;21.10;;;4.30;;
21581;SDS011;10952;50.836;4.348;2023-03-31T10:40:30;21.83;;;3.67;;
21581;SDS011;10952;50.836;4.348;2023-03-31T10:43:18;20.23;;;3.73;;
21581;SDS011;10952;50.836;4.348;2023-03-31T10:45:48;18.30;;;4.23;;
21581;SDS011;10952;50.836;4.348;2023-03-31T10:48:33;19.13;;;3.60;;
21581;SDS011;10952;50.836;4.348;2023-03-31T10:53:41;18.87;;;3.90;;
21581;SDS011;10952;50.836;4.348;2023-03-31T11:01:52;23.60;;;3.97;;
21581;SDS011;10952;50.836;4.348;2023-03-31T11:12:43;22.37;;;4.83;;
21581;SDS011;10952;50.836;4.348;2023-03-31T11:18:40;18.33;;;3.77;;
21581;SDS011;10952;50.836;4.348;2023-03-31T11:21:03;20.57;;;4.07;;
21581;SDS011;10952;50.836;4.348;2023-03-31T11:23:43;22.40;;;4.83;;
21581;SDS011;10952;50.836;4.348;2023-03-31T11:28:55;20.40;;;3.83;;
21581;SDS011;10952;50.836;4.348;2023-03-31T11:46:00;15.37;;;3.20;;
21581;SDS011;10952;50.836;4.348;2023-03-31T11:52:08;13.87;;;3.63;;
21581;SDS011;10952;50.836;4.348;2023-03-31T11:54:44;13.90;;;3.80;;
21581;SDS011;10952;50.836;4.348;2023-03-31T11:57:55;14.60;;;3.10;;
21581;SDS011;10952;50.836;4.348;2023-03-31T12:05:39;19.63;;;3.23;;
21581;SDS011;10952;50.836;4.348;2023-03-31T12:08:19;18.70;;;3.23;;
21581;SDS011;10952;50.836;4.348;2023-03-31T12:10:52;20.87;;;3.60;;
21581;SDS011;10952;50.836;4.348;2023-03-31T12:15:57;15.57;;;2.73;;
21581;SDS011;10952;50.836;4.348;2023-03-31T12:18:37;14.33;;;2.97;;
21581;SDS011;10952;50.836;4.348;2023-03-31T12:21:09;22.57;;;3.17;;
21581;SDS011;10952;50.836;4.348;2023-03-31T12:23:39;14.70;;;2.83;;
21581;SDS011;10952;50.836;4.348;2023-03-31T12:29:01;16.43;;;2.53;;
21581;SDS011;10952;50.836;4.348;2023-03-31T12:31:40;15.90;;;3.60;;
21581;SDS011;10952;50.836;4.348;2023-03-31T12:34:10;12.27;;;3.00;;
21581;SDS011;10952;50.836;4.348;2023-03-31T12:36:45;13.40;;;3.00;;
21581;SDS011;10952;50.836;4.348;2023-03-31T12:55:55;7.90;;;1.63;;
21581;SDS011;10952;50.836;4.348;2023-03-31T13:01:04;9.83;;;1.70;;
21581;SDS011;10952;50.836;4.348;2023-03-31T13:03:52;6.50;;;1.67;;
21581;SDS011;10952;50.836;4.348;2023-03-31T13:11:32;9.20;;;1.40;;
21581;SDS011;10952;50.836;4.348;2023-03-31T13:14:03;9.07;;;1.33;;
21581;SDS011;10952;50.836;4.348;2023-03-31T13:16:30;3.57;;;1.17;;
21581;SDS011;10952;50.836;4.348;2023-03-31T13:18:57;7.87;;;1.10;;
21581;SDS011;10952;50.836;4.348;2023-03-31T13:21:23;7.90;;;1.30;;
21581;SDS011;10952;50.836;4.348;2023-03-31T13:23:49;2.40;;;1.20;;
21581;SDS011;10952;50.836;4.348;2023-03-31T13:34:51;4.63;;;1.23;;
21581;SDS011;10952;50.836;4.348;2023-03-31T13:42:49;8.10;;;1.20;;
21581;SDS011;10952;50.836;4.348;2023-03-31T14:01:47;4.23;;;1.33;;
21581;SDS011;10952;50.836;4.348;2023-03-31T14:10:02;17.77;;;7.30;;
21581;SDS011;10952;50.836;4.348;2023-03-31T14:14:58;2.90;;;1.17;;
21581;SDS011;10952;50.836;4.348;2023-03-31T14:17:28;3.17;;;0.80;;
21581;SDS011;10952;50.836;4.348;2023-03-31T14:36:20;1.73;;;0.73;;
21581;SDS011;10952;50.836;4.348;2023-03-31T14:38:54;3.90;;;0.90;;
21581;SDS011;10952;50.836;4.348;2023-03-31T14:41:27;2.23;;;0.70;;
21581;SDS011;10952;50.836;4.348;2023-03-31T14:44:05;2.77;;;0.93;;
21581;SDS011;10952;50.836;4.348;2023-03-31T14:46:35;4.13;;;1.33;;
21581;SDS011;10952;50.836;4.348;2023-03-31T14:49:19;2.53;;;1.10;;
21581;SDS011;10952;50.836;4.348;2023-03-31T14:51:50;5.00;;;1.50;;
21581;SDS011;10952;50.836;4.348;2023-03-31T14:54:17;3.00;;;1.00;;
21581;SDS011;10952;50.836;4.348;2023-03-31T14:56:45;3.87;;;1.10;;
21581;SDS011;10952;50.836;4.348;2023-03-31T15:02:34;3.10;;;0.97;;
21581;SDS011;10952;50.836;4.348;2023-03-31T15:05:14;3.43;;;0.90;;
21581;SDS011;10952;50.836;4.348;2023-03-31T15:07:57;4.93;;;1.20;;
21581;SDS011;10952;50.836;4.348;2023-03-31T15:10:29;3.63;;;1.20;;
21581;SDS011;10952;50.836;4.348;2023-03-31T15:13:08;6.93;;;1.57;;
21581;SDS011;10952;50.836;4.348;2023-03-31T15:15:35;4.17;;;0.90;;
21581;SDS011;10952;50.836;4.348;2023-03-31T15:18:01;3.60;;;0.93;;
21581;SDS011;10952;50.836;4.348;2023-03-31T15:20:28;3.73;;;0.70;;
21581;SDS011;10952;50.836;4.348;2023-03-31T15:23:03;1.90;;;0.83;;
21581;SDS011;10952;50.836;4.348;2023-03-31T15:25:42;4.77;;;1.03;;
21581;SDS011;10952;50.836;4.348;2023-03-31T15:28:12;4.50;;;1.20;;
21581;SDS011;10952;50.836;4.348;2023-03-31T15:30:41;1.90;;;0.90;;
21581;SDS011;10952;50.836;4.348;2023-03-31T15:33:07;4.87;;;1.20;;
21581;SDS011;10952;50.836;4.348;2023-03-31T15:35:43;7.33;;;1.00;;
21581;SDS011;10952;50.836;4.348;2023-03-31T15:38:09;5.70;;;1.23;;
21581;SDS011;10952;50.836;4.348;2023-03-31T15:40:40;3.57;;;1.20;;
21581;SDS011;10952;50.836;4.348;2023-03-31T15:43:15;5.13;;;1.00;;
21581;SDS011;10952;50.836;4.348;2023-03-31T15:48:22;3.53;;;1.30;;
21581;SDS011;10952;50.836;4.348;2023-03-31T15:53:43;5.67;;;1.87;;
21581;SDS011;10952;50.836;4.348;2023-03-31T15:59:24;6.80;;;1.60;;
21581;SDS011;10952;50.836;4.348;2023-03-31T16:01:52;8.47;;;1.30;;
21581;SDS011;10952;50.836;4.348;2023-03-31T16:04:20;9.93;;;1.30;;
21581;SDS011;10952;50.836;4.348;2023-03-31T16:12:04;6.43;;;1.67;;
21581;SDS011;10952;50.836;4.348;2023-03-31T16:14:38;7.17;;;1.87;;
21581;SDS011;10952;50.836;4.348;2023-03-31T16:17:13;7.57;;;1.70;;
21581;SDS011;10952;50.836;4.348;2023-03-31T16:19:47;13.80;;;1.97;;
21581;SDS011;10952;50.836;4.348;2023-03-31T16:22:16;8.67;;;1.70;;
21581;SDS011;10952;50.836;4.348;2023-03-31T16:24:48;8.97;;;2.20;;
21581;SDS011;10952;50.836;4.348;2023-03-31T16:27:14;17.13;;;3.43;;
21581;SDS011;10952;50.836;4.348;2023-03-31T16:29:40;8.63;;;2.10;;
21581;SDS011;10952;50.836;4.348;2023-03-31T16:32:13;10.23;;;2.13;;
21581;SDS011;10952;50.836;4.348;2023-03-31T16:37:36;12.73;;;2.13;;
21581;SDS011;10952;50.836;4.348;2023-03-31T16:40:01;9.07;;;1.83;;
21581;SDS011;10952;50.836;4.348;2023-03-31T16:42:28;12.53;;;2.03;;
21581;SDS011;10952;50.836;4.348;2023-03-31T16:44:54;14.77;;;2.07;;
21581;SDS011;10952;50.836;4.348;2023-03-31T16:47:20;8.73;;;1.70;;
21581;SDS011;10952;50.836;4.348;2023-03-31T16:49:46;6.70;;;1.87;;
21581;SDS011;10952;50.836;4.348;2023-03-31T16:52:11;9.33;;;2.07;;
21581;SDS011;10952;50.836;4.348;2023-03-31T16:54:37;9.00;;;2.20;;
21581;SDS011;10952;50.836;4.348;2023-03-31T16:57:03;6.80;;;1.97;;
21581;SDS011;10952;50.836;4.348;2023-03-31T16:59:28;11.47;;;2.13;;
21581;SDS011;10952;50.836;4.348;2023-03-31T17:01:54;9.40;;;2.30;;
21581;SDS011;10952;50.836;4.348;2023-03-31T17:04:20;10.93;;;2.53;;
21581;SDS011;10952;50.836;4.348;2023-03-31T17:06:47;7.73;;;2.27;;
21581;SDS011;10952;50.836;4.348;2023-03-31T17:09:12;13.10;;;2.17;;
21581;SDS011;10952;50.836;4.348;2023-03-31T17:11:38;6.87;;;1.70;;
21581;SDS011;10952;50.836;4.348;2023-03-31T17:14:05;7.40;;;1.90;;
21581;SDS011;10952;50.836;4.348;2023-03-31T17:16:30;10.30;;;3.20;;
21581;SDS011;10952;50.836;4.348;2023-03-31T17:18:56;8.80;;;2.07;;
21581;SDS011;10952;50.836;4.348;2023-03-31T17:21:22;12.37;;;4.10;;
21581;SDS011;10952;50.836;4.348;2023-03-31T17:23:48;14.40;;;2.00;;
21581;SDS011;10952;50.836;4.348;2023-03-31T17:26:14;8.50;;;1.93;;
21581;SDS011;10952;50.836;4.348;2023-03-31T17:28:42;8.30;;;2.70;;
21581;SDS011;10952;50.836;4.348;2023-03-31T17:31:11;11.93;;;2.60;;
21581;SDS011;10952;50.836;4.348;2023-03-31T17:33:38;13.20;;;2.50;;
21581;SDS011;10952;50.836;4.348;2023-03-31T17:36:04;11.50;;;2.50;;
21581;SDS011;10952;50.836;4.348;2023-03-31T17:38:30;13.10;;;2.57;;
21581;SDS011;10952;50.836;4.348;2023-03-31T17:41:01;13.50;;;3.20;;
21581;SDS011;10952;50.836;4.348;2023-03-31T17:43:28;13.07;;;3.70;;
21581;SDS011;10952;50.836;4.348;2023-03-31T17:46:00;20.20;;;4.03;;
21581;SDS011;10952;50.836;4.348;2023-03-31T17:48:31;22.57;;;3.37;;
21581;SDS011;10952;50.836;4.348;2023-03-31T17:51:04;20.07;;;3.50;;
21581;SDS011;10952;50.836;4.348;2023-03-31T17:53:34;26.33;;;3.67;;
21581;SDS011;10952;50.836;4.348;2023-03-31T17:56:01;17.93;;;3.87;;
21581;SDS011;10952;50.836;4.348;2023-03-31T17:58:27;16.80;;;3.50;;
21581;SDS011;10952;50.836;4.348;2023-03-31T18:00:54;17.63;;;3.83;;
21581;SDS011;10952;50.836;4.348;2023-03-31T18:03:19;13.03;;;3.27;;
21581;SDS011;10952;50.836;4.348;2023-03-31T18:05:46;20.80;;;2.70;;
21581;SDS011;10952;50.836;4.348;2023-03-31T18:08:11;21.20;;;4.33;;
21581;SDS011;10952;50.836;4.348;2023-03-31T18:10:37;18.93;;;3.00;;
21581;SDS011;10952;50.836;4.348;2023-03-31T18:13:03;18.87;;;4.10;;
21581;SDS011;10952;50.836;4.348;2023-03-31T18:15:28;16.73;;;4.00;;
21581;SDS011;10952;50.836;4.348;2023-03-31T18:17:54;21.43;;;3.70;;
21581;SDS011;10952;50.836;4.348;2023-03-31T18:20:20;21.33;;;4.30;;
21581;SDS011;10952;50.836;4.348;2023-03-31T18:22:47;19.80;;;4.00;;
21581;SDS011;10952;50.836;4.348;2023-03-31T18:25:13;21.60;;;4.23;;
21581;SDS011;10952;50.836;4.348;2023-03-31T18:27:39;11.90;;;3.47;;
21581;SDS011;10952;50.836;4.348;2023-03-31T18:30:06;26.37;;;4.23;;
21581;SDS011;10952;50.836;4.348;2023-03-31T18:32:32;22.40;;;3.73;;
21581;SDS011;10952;50.836;4.348;2023-03-31T18:34:58;22.67;;;3.80;;
21581;SDS011;10952;50.836;4.348;2023-03-31T18:37:24;23.67;;;3.97;;